Time;durP1;ratioP1;P1;durP2;ratioP2;P2;SDS_P1;SDS_P2;PMS_P1;PMS_P2;Temp;Humidity;BMP_temperature;BMP_pressure;BME280_temperature;BME280_humidity;BME280_pressure;Samples;Min_cycle;Max_cycle;Signal;HPM_P1;HPM_P2
2022/01/04 00:02:01;;;;;;;1.27;0.50;;;10.90;71.60;;;;;;5006458;28;20250;-68
2022/01/04 00:04:27;;;;;;;1.67;0.60;;;10.90;70.70;;;;;;5004232;28;20042;-68
2022/01/04 00:06:54;;;;;;;0.88;0.70;;;11.00;70.70;;;;;;5006119;28;20036;-68
2022/01/04 00:09:20;;;;;;;2.53;0.65;;;11.00;70.70;;;;;;5002503;28;20031;-67
2022/01/04 00:14:18;;;;;;;2.42;0.63;;;11.00;70.70;;;;;;4999933;28;20030;-68
2022/01/04 00:16:44;;;;;;;1.30;0.50;;;11.00;70.60;;;;;;5003173;28;20026;-68
2022/01/04 00:19:10;;;;;;;1.10;0.60;;;11.10;70.60;;;;;;4999245;28;20483;-68
2022/01/04 00:21:37;;;;;;;1.77;0.60;;;11.10;70.50;;;;;;5001385;28;20592;-67
2022/01/04 00:24:04;;;;;;;1.20;0.50;;;11.10;70.50;;;;;;5002801;28;20041;-67
2022/01/04 00:26:29;;;;;;;2.72;0.40;;;11.10;70.40;;;;;;5007362;28;20026;-67
2022/01/04 00:28:55;;;;;;;1.58;0.50;;;11.20;70.40;;;;;;5002595;28;20044;-68
2022/01/04 00:31:21;;;;;;;2.97;0.60;;;11.20;70.40;;;;;;5001802;28;20048;-68
2022/01/04 00:33:47;;;;;;;0.88;0.50;;;11.20;70.20;;;;;;5005108;28;20044;-68
2022/01/04 00:36:12;;;;;;;1.75;0.60;;;11.20;70.20;;;;;;4998736;28;20048;-68
2022/01/04 00:38:38;;;;;;;1.58;0.43;;;11.20;70.20;;;;;;5001457;28;20581;-67
2022/01/04 00:41:03;;;;;;;0.65;0.47;;;11.20;70.20;;;;;;5001210;28;20136;-67
2022/01/04 00:43:29;;;;;;;1.33;0.60;;;11.30;70.10;;;;;;5000163;28;20069;-68
2022/01/04 00:45:55;;;;;;;1.33;0.57;;;11.30;70.00;;;;;;4999607;28;20061;-68
2022/01/04 00:50:46;;;;;;;1.20;0.70;;;11.30;69.90;;;;;;5009025;28;20107;-67
2022/01/04 00:53:12;;;;;;;2.70;0.70;;;11.30;69.90;;;;;;5005025;28;20117;-68
2022/01/04 00:55:38;;;;;;;0.90;0.50;;;11.30;69.90;;;;;;5009845;28;20129;-68
2022/01/04 00:58:05;;;;;;;1.23;0.47;;;11.30;69.80;;;;;;5009853;28;20037;-68
2022/01/04 01:00:31;;;;;;;2.03;0.52;;;11.30;69.90;;;;;;4999549;28;20623;-67
2022/01/04 01:02:57;;;;;;;3.65;0.70;;;11.30;69.80;;;;;;5004551;28;20041;-68
2022/01/04 01:05:24;;;;;;;1.45;0.55;;;11.30;69.70;;;;;;5000283;28;20568;-68
2022/01/04 01:07:51;;;;;;;2.80;0.77;;;11.30;69.70;;;;;;5001444;28;20493;-68
2022/01/04 01:12:52;;;;;;;2.97;0.70;;;11.30;69.70;;;;;;4995079;28;20034;-68
2022/01/04 01:15:19;;;;;;;0.68;0.50;;;11.30;69.80;;;;;;5007609;28;20033;-68
2022/01/04 01:17:44;;;;;;;2.53;0.80;;;11.30;69.70;;;;;;5006237;28;20026;-68
2022/01/04 01:20:13;;;;;;;2.88;0.85;;;11.30;69.80;;;;;;5009620;28;20539;-68
2022/01/04 01:22:40;;;;;;;0.95;0.70;;;11.30;69.80;;;;;;5006705;28;20041;-68
2022/01/04 01:25:06;;;;;;;2.28;0.75;;;11.30;69.80;;;;;;5008690;28;20141;-68
2022/01/04 01:27:32;;;;;;;1.27;0.77;;;11.30;69.80;;;;;;5008512;28;20065;-67
2022/01/04 01:29:58;;;;;;;1.88;0.60;;;11.30;69.80;;;;;;5007067;28;20117;-68
2022/01/04 01:32:23;;;;;;;0.60;0.47;;;11.30;69.70;;;;;;5006482;28;20045;-68
2022/01/04 01:34:49;;;;;;;3.00;0.80;;;11.30;69.60;;;;;;5003564;28;20846;-66
2022/01/04 01:37:15;;;;;;;0.80;0.57;;;11.20;69.60;;;;;;4996390;28;20109;-68
2022/01/04 01:39:41;;;;;;;1.05;0.70;;;11.20;69.50;;;;;;5000148;28;21505;-68
2022/01/04 01:42:07;;;;;;;1.55;0.50;;;11.20;69.50;;;;;;5006198;28;20084;-68
2022/01/04 01:44:34;;;;;;;1.42;0.70;;;11.20;69.60;;;;;;5002843;28;20061;-68
2022/01/04 01:46:59;;;;;;;3.75;0.60;;;11.20;69.70;;;;;;4997235;28;20505;-68
2022/01/04 01:49:25;;;;;;;1.77;0.60;;;11.10;69.70;;;;;;5002464;28;20038;-68
2022/01/04 01:51:52;;;;;;;1.73;0.43;;;11.10;69.70;;;;;;4997605;28;20026;-68
2022/01/04 01:54:18;;;;;;;1.48;0.50;;;11.10;69.70;;;;;;4999296;28;20034;-68
2022/01/04 01:56:43;;;;;;;1.73;0.80;;;11.00;69.80;;;;;;4997109;28;20037;-68
2022/01/04 01:59:09;;;;;;;4.65;0.80;;;11.10;69.90;;;;;;4995678;28;20034;-67
2022/01/04 02:01:35;;;;;;;1.88;0.90;;;11.00;69.80;;;;;;4997014;28;20042;-67
2022/01/04 02:04:01;;;;;;;1.83;0.88;;;11.00;69.80;;;;;;4998249;28;20122;-68
2022/01/04 02:06:29;;;;;;;1.40;0.80;;;11.00;69.80;;;;;;5004277;28;20034;-69
2022/01/04 02:09:00;;;;;;;2.45;0.80;;;11.00;69.90;;;;;;4998709;28;20031;-68
2022/01/04 02:11:29;;;;;;;3.35;0.95;;;10.90;70.70;;;;;;4997880;28;20037;-68
2022/01/04 02:13:57;;;;;;;2.05;0.88;;;11.00;69.90;;;;;;4997121;28;20052;-68
2022/01/04 02:16:25;;;;;;;1.65;0.70;;;10.90;69.90;;;;;;4994877;28;20034;-68
2022/01/04 02:18:51;;;;;;;1.90;0.70;;;11.00;70.00;;;;;;5005937;28;20042;-68
2022/01/04 02:21:16;;;;;;;2.28;0.70;;;10.90;70.00;;;;;;5004431;28;20088;-67
2022/01/04 02:23:42;;;;;;;1.83;0.80;;;10.90;69.90;;;;;;5000125;28;20524;-68
2022/01/04 02:26:09;;;;;;;2.03;0.80;;;11.00;69.90;;;;;;5003546;28;20041;-68
2022/01/04 02:28:35;;;;;;;1.23;0.82;;;11.00;69.90;;;;;;5004034;28;21077;-65
2022/01/04 02:31:01;;;;;;;3.58;1.00;;;10.90;69.80;;;;;;5006120;28;20061;-69
2022/01/04 02:33:27;;;;;;;2.38;0.80;;;10.90;69.70;;;;;;5004928;28;20731;-68
2022/01/04 02:35:53;;;;;;;3.15;0.68;;;11.00;69.70;;;;;;5000970;28;20046;-68
2022/01/04 02:38:18;;;;;;;2.05;0.90;;;10.90;69.70;;;;;;4997573;28;20186;-67
2022/01/04 02:40:44;;;;;;;2.65;0.75;;;11.00;69.70;;;;;;5003875;28;20037;-68
2022/01/04 02:43:10;;;;;;;1.88;0.60;;;11.00;69.60;;;;;;5002029;28;21509;-68
2022/01/04 02:45:36;;;;;;;1.45;0.63;;;11.00;69.50;;;;;;5001644;28;20042;-68
2022/01/04 02:48:02;;;;;;;1.50;0.85;;;11.00;69.50;;;;;;5004429;28;20425;-68
2022/01/04 02:50:28;;;;;;;1.00;0.60;;;11.00;69.40;;;;;;5000663;28;20092;-66
2022/01/04 02:52:54;;;;;;;3.45;0.70;;;11.00;69.30;;;;;;4999774;28;20053;-68
2022/01/04 02:55:20;;;;;;;1.52;0.63;;;11.00;69.20;;;;;;5002847;28;20030;-68
2022/01/04 02:57:46;;;;;;;1.58;0.80;;;11.00;69.00;;;;;;5005745;28;20030;-68
2022/01/04 03:00:14;;;;;;;2.45;0.82;;;11.00;69.00;;;;;;5000625;28;20045;-68
2022/01/04 03:02:41;;;;;;;1.77;0.90;;;11.00;68.80;;;;;;5005364;28;20042;-68
2022/01/04 03:05:08;;;;;;;2.08;0.70;;;11.00;68.70;;;;;;5001618;28;20042;-68
2022/01/04 03:07:34;;;;;;;2.20;0.82;;;11.00;68.60;;;;;;5003299;28;20116;-68
2022/01/04 03:10:00;;;;;;;2.22;0.85;;;11.00;68.40;;;;;;5003941;28;20061;-68
2022/01/04 03:12:25;;;;;;;1.08;0.82;;;11.00;69.10;;;;;;4997898;28;20095;-68
2022/01/04 03:14:51;;;;;;;1.98;0.95;;;11.00;68.10;;;;;;5002871;28;20030;-67
2022/01/04 03:17:16;;;;;;;1.67;0.75;;;11.10;68.10;;;;;;5003419;28;20042;-68
2022/01/04 03:19:42;;;;;;;1.92;0.80;;;11.10;68.00;;;;;;5004937;28;20409;-68
2022/01/04 03:22:08;;;;;;;1.70;0.80;;;11.10;67.90;;;;;;5003810;28;20038;-68
2022/01/04 03:24:34;;;;;;;2.08;0.90;;;11.10;67.90;;;;;;5000141;28;20631;-68
2022/01/04 03:27:00;;;;;;;1.55;0.70;;;11.10;67.80;;;;;;5004557;28;20033;-68
2022/01/04 03:29:26;;;;;;;1.42;0.70;;;11.10;67.70;;;;;;5005517;28;20038;-68
2022/01/04 03:31:52;;;;;;;1.23;0.70;;;11.10;67.70;;;;;;5004383;28;20029;-68
2022/01/04 03:34:18;;;;;;;2.22;0.90;;;11.10;67.80;;;;;;4999028;28;20413;-68
2022/01/04 03:36:44;;;;;;;1.55;0.70;;;11.10;67.80;;;;;;4999404;28;20042;-68
2022/01/04 03:39:10;;;;;;;1.40;1.00;;;11.10;67.70;;;;;;5000765;28;20022;-68
2022/01/04 03:41:39;;;;;;;0.95;0.70;;;11.20;67.80;;;;;;5002274;28;20027;-68
2022/01/04 03:44:10;;;;;;;1.58;0.70;;;11.20;67.80;;;;;;5004919;28;20029;-68
2022/01/04 03:46:36;;;;;;;1.63;0.55;;;11.20;67.80;;;;;;5000858;28;20058;-68
2022/01/04 03:49:03;;;;;;;1.92;0.80;;;11.20;67.80;;;;;;5000865;28;20937;-68
2022/01/04 03:51:29;;;;;;;2.80;0.60;;;11.20;67.80;;;;;;5001086;28;20041;-68
2022/01/04 03:53:55;;;;;;;0.82;0.57;;;11.20;67.90;;;;;;5001718;28;20030;-68
2022/01/04 03:56:20;;;;;;;1.70;0.70;;;11.30;68.00;;;;;;4998970;28;20543;-68
2022/01/04 03:58:46;;;;;;;1.40;0.73;;;11.30;68.70;;;;;;5002094;28;20412;-67
2022/01/04 04:01:12;;;;;;;1.42;0.70;;;11.30;67.80;;;;;;5004578;28;20062;-69
2022/01/04 04:03:37;;;;;;;1.02;0.93;;;11.30;67.80;;;;;;5004766;28;20034;-68
2022/01/04 04:06:03;;;;;;;1.00;0.60;;;11.30;67.80;;;;;;5000916;28;20034;-68
2022/01/04 04:08:29;;;;;;;2.55;0.73;;;11.30;67.80;;;;;;5003787;28;20041;-68
2022/01/04 04:10:54;;;;;;;1.55;0.70;;;11.40;68.60;;;;;;5000441;28;20058;-67
2022/01/04 04:13:20;;;;;;;1.50;0.73;;;11.40;67.80;;;;;;5001807;28;20656;-68
2022/01/04 04:15:46;;;;;;;1.45;0.80;;;11.40;67.70;;;;;;4998636;28;20041;-68
2022/01/04 04:18:13;;;;;;;1.27;0.80;;;11.40;67.70;;;;;;5004039;28;20125;-68
2022/01/04 04:20:39;;;;;;;1.45;0.80;;;11.40;67.50;;;;;;5004525;28;20088;-68
2022/01/04 04:23:06;;;;;;;1.08;0.60;;;11.50;67.70;;;;;;5005167;28;20108;-68
2022/01/04 04:25:33;;;;;;;2.40;1.00;;;11.50;67.60;;;;;;4999733;28;20077;-66
2022/01/04 04:27:58;;;;;;;1.85;0.90;;;11.50;67.60;;;;;;5001022;28;20034;-68
2022/01/04 04:30:24;;;;;;;1.42;0.80;;;11.50;67.40;;;;;;5001759;28;20050;-68
2022/01/04 04:32:50;;;;;;;0.80;0.65;;;11.60;67.40;;;;;;5000553;28;20041;-68
2022/01/04 04:35:15;;;;;;;1.95;0.88;;;11.60;67.40;;;;;;5000270;28;20871;-67
2022/01/04 04:37:41;;;;;;;1.20;0.70;;;11.70;67.50;;;;;;5000636;28;20063;-68
2022/01/04 04:40:08;;;;;;;1.60;0.88;;;11.70;67.60;;;;;;5000792;28;20033;-68
2022/01/04 04:42:34;;;;;;;2.13;0.70;;;11.80;67.70;;;;;;4998149;28;20497;-68
2022/01/04 04:45:00;;;;;;;2.50;0.95;;;11.80;67.80;;;;;;5003456;28;20045;-68
2022/01/04 04:47:26;;;;;;;2.13;1.45;;;11.90;68.00;;;;;;5002924;28;20051;-68
2022/01/04 04:49:53;;;;;;;6.70;3.53;;;11.90;68.00;;;;;;5004591;28;20042;-68
2022/01/04 04:52:19;;;;;;;2.38;1.70;;;11.90;68.00;;;;;;4999703;28;20057;-68
2022/01/04 04:54:45;;;;;;;1.10;0.80;;;12.00;68.10;;;;;;5002133;28;20131;-68
2022/01/04 04:57:11;;;;;;;0.80;0.70;;;12.00;68.10;;;;;;5004297;28;20477;-68
2022/01/04 04:59:37;;;;;;;1.17;0.70;;;12.00;68.10;;;;;;5003947;28;20109;-68
2022/01/04 05:02:03;;;;;;;0.80;0.70;;;12.00;68.10;;;;;;4996429;28;20060;-68
2022/01/04 05:04:29;;;;;;;1.30;1.20;;;12.10;68.30;;;;;;4995816;28;20321;-68
2022/01/04 05:06:54;;;;;;;1.27;0.73;;;12.10;68.40;;;;;;5003413;28;20046;-68
2022/01/04 05:09:20;;;;;;;0.80;0.80;;;12.10;68.40;;;;;;5007432;28;20027;-68
2022/01/04 05:11:46;;;;;;;1.42;0.82;;;12.10;68.50;;;;;;5001766;28;20041;-68
2022/01/04 05:14:12;;;;;;;1.95;0.70;;;12.20;68.60;;;;;;5006205;28;20064;-68
2022/01/04 05:16:37;;;;;;;0.55;0.55;;;12.20;68.60;;;;;;5007622;28;20105;-68
2022/01/04 05:19:03;;;;;;;1.95;0.32;;;12.20;68.80;;;;;;5007249;28;20038;-68
2022/01/04 05:21:29;;;;;;;0.77;0.73;;;12.20;68.70;;;;;;5006157;28;20050;-67
2022/01/04 05:23:54;;;;;;;0.50;0.47;;;12.20;68.80;;;;;;5007108;28;20046;-67
2022/01/04 05:26:21;;;;;;;1.73;0.60;;;12.30;69.00;;;;;;5002748;28;20101;-68
2022/01/04 05:28:47;;;;;;;0.60;0.50;;;12.20;69.00;;;;;;5006107;28;20038;-68
2022/01/04 05:31:13;;;;;;;0.70;0.70;;;12.30;69.00;;;;;;5004199;28;20037;-68
2022/01/04 05:33:40;;;;;;;1.25;0.40;;;12.30;69.10;;;;;;5007971;28;20054;-68
2022/01/04 05:36:06;;;;;;;1.63;0.90;;;12.30;69.10;;;;;;5007102;28;20715;-68
2022/01/04 05:38:32;;;;;;;0.60;0.60;;;12.40;69.30;;;;;;5002761;28;20026;-65
2022/01/04 05:40:58;;;;;;;1.08;0.70;;;12.40;69.30;;;;;;5002713;28;20100;-68
2022/01/04 05:43:24;;;;;;;0.98;0.60;;;12.40;69.50;;;;;;4999211;28;20034;-69
2022/01/04 05:45:49;;;;;;;0.65;0.40;;;12.50;69.60;;;;;;5006302;28;20042;-67
2022/01/04 05:48:18;;;;;;;1.50;0.40;;;12.50;69.60;;;;;;5005042;28;20104;-68
2022/01/04 05:50:44;;;;;;;0.40;0.40;;;12.50;69.90;;;;;;5006072;28;20030;-67
2022/01/04 05:53:09;;;;;;;2.08;0.50;;;12.50;70.00;;;;;;5004943;28;20042;-70
2022/01/04 05:55:35;;;;;;;0.70;0.60;;;12.50;70.20;;;;;;5001087;28;20583;-67
2022/01/04 05:58:01;;;;;;;0.60;0.47;;;12.50;70.40;;;;;;5002229;28;20068;-68
2022/01/04 06:00:26;;;;;;;2.80;1.05;;;12.50;70.60;;;;;;4997132;28;20041;-67
2022/01/04 06:02:52;;;;;;;0.88;0.80;;;12.50;70.90;;;;;;5003510;28;20417;-67
2022/01/04 06:05:18;;;;;;;1.52;1.42;;;12.50;71.00;;;;;;5004674;28;20057;-67
2022/01/04 06:07:44;;;;;;;1.10;1.00;;;12.50;71.20;;;;;;5006031;28;20061;-67
2022/01/04 06:10:11;;;;;;;1.10;1.00;;;12.50;71.30;;;;;;5006789;28;20045;-67
2022/01/04 06:15:11;;;;;;;0.98;0.50;;;12.50;71.50;;;;;;5005763;28;20441;-67
2022/01/04 06:17:41;;;;;;;1.73;0.60;;;12.50;71.90;;;;;;5007797;28;20034;-67
2022/01/04 06:20:09;;;;;;;1.10;0.85;;;12.50;72.00;;;;;;5007013;28;20107;-67
2022/01/04 06:22:37;;;;;;;1.67;1.27;;;12.50;72.40;;;;;;5005703;28;20040;-67
2022/01/04 06:25:03;;;;;;;1.48;1.25;;;12.40;72.20;;;;;;5006141;28;20508;-67
2022/01/04 06:27:29;;;;;;;0.95;0.70;;;12.40;72.50;;;;;;5005665;28;20038;-66
2022/01/04 06:29:55;;;;;;;2.30;1.08;;;12.40;72.60;;;;;;5005217;28;20064;-67
2022/01/04 06:32:20;;;;;;;0.63;0.60;;;12.40;73.00;;;;;;5001697;28;20042;-67
2022/01/04 06:34:46;;;;;;;0.50;0.45;;;12.30;73.10;;;;;;5005805;28;20049;-67
2022/01/04 06:37:13;;;;;;;0.52;0.50;;;12.30;73.30;;;;;;5005966;28;20125;-67
2022/01/04 06:39:39;;;;;;;0.82;0.50;;;12.30;73.40;;;;;;5006904;28;20037;-67
2022/01/04 06:42:04;;;;;;;0.82;0.60;;;12.30;73.50;;;;;;5007553;28;20394;-67
2022/01/04 06:44:31;;;;;;;0.75;0.60;;;12.30;73.90;;;;;;5005050;28;20030;-68
2022/01/04 06:46:57;;;;;;;0.50;0.40;;;12.30;73.90;;;;;;5005484;28;20541;-67
2022/01/04 06:49:23;;;;;;;0.90;0.43;;;12.30;73.90;;;;;;5005040;28;20161;-67
2022/01/04 06:51:49;;;;;;;0.95;0.57;;;12.30;74.10;;;;;;5006880;28;20072;-66
2022/01/04 06:54:17;;;;;;;0.93;0.50;;;12.30;74.10;;;;;;5006589;28;20074;-66
2022/01/04 06:56:43;;;;;;;1.85;0.40;;;12.30;74.20;;;;;;5006570;28;20976;-67
2022/01/04 06:59:09;;;;;;;0.88;0.60;;;12.30;74.40;;;;;;5005474;28;20034;-67
2022/01/04 07:01:36;;;;;;;0.88;0.50;;;12.20;74.40;;;;;;5001715;28;20049;-66
2022/01/04 07:04:03;;;;;;;2.58;0.90;;;12.30;74.60;;;;;;5000232;28;20061;-66
2022/01/04 07:06:28;;;;;;;0.75;0.70;;;12.20;74.60;;;;;;4998259;28;20132;-66
2022/01/04 07:08:54;;;;;;;2.65;1.02;;;12.20;74.70;;;;;;4992415;28;20045;-67
2022/01/04 07:11:20;;;;;;;0.90;0.90;;;12.20;74.70;;;;;;4991963;28;20120;-67
2022/01/04 07:13:45;;;;;;;1.42;0.88;;;12.20;74.90;;;;;;4995807;28;20549;-67
2022/01/04 07:16:11;;;;;;;1.85;0.85;;;12.20;74.90;;;;;;5003625;28;20548;-67
2022/01/04 07:18:37;;;;;;;2.13;1.92;;;12.10;74.80;;;;;;5003687;28;20073;-66
2022/01/04 07:21:03;;;;;;;1.10;0.80;;;12.10;75.10;;;;;;5004524;28;20062;-67
2022/01/04 07:23:29;;;;;;;1.20;0.75;;;12.20;75.90;;;;;;5003900;28;20037;-66
2022/01/04 07:25:55;;;;;;;0.98;0.80;;;12.10;75.30;;;;;;5002454;28;20638;-67
2022/01/04 07:28:22;;;;;;;1.52;0.77;;;12.10;75.20;;;;;;5002762;28;20091;-67
2022/01/04 07:30:48;;;;;;;1.63;1.50;;;12.10;75.30;;;;;;4999311;28;20536;-66
2022/01/04 07:33:15;;;;;;;1.90;1.33;;;12.10;75.40;;;;;;4992774;28;20038;-67
2022/01/04 07:35:41;;;;;;;1.60;1.50;;;12.10;75.60;;;;;;5000238;28;20042;-67
2022/01/04 07:38:06;;;;;;;2.22;2.05;;;12.10;75.60;;;;;;5004714;28;20034;-67
2022/01/04 07:40:32;;;;;;;1.27;1.17;;;12.00;75.60;;;;;;4994955;28;20062;-66
2022/01/04 07:43:00;;;;;;;1.27;1.00;;;12.00;75.60;;;;;;4992722;28;20513;-66
2022/01/04 07:45:30;;;;;;;1.33;1.20;;;12.00;75.40;;;;;;4994341;28;20033;-66
2022/01/04 07:47:56;;;;;;;1.52;1.00;;;12.00;75.70;;;;;;4992051;28;20132;-66
2022/01/04 07:50:22;;;;;;;1.63;1.00;;;11.90;75.50;;;;;;4994504;28;20034;-67
2022/01/04 07:52:48;;;;;;;1.67;1.17;;;11.90;75.60;;;;;;4992555;28;20091;-66
2022/01/04 07:55:13;;;;;;;1.20;1.00;;;11.80;75.80;;;;;;4997821;28;20659;-66
2022/01/04 07:57:41;;;;;;;1.65;1.00;;;11.80;75.80;;;;;;4995674;28;20520;-64
2022/01/04 08:00:08;;;;;;;1.38;0.88;;;11.70;76.00;;;;;;4988244;28;20571;-67
2022/01/04 08:02:34;;;;;;;1.83;1.02;;;11.70;76.20;;;;;;5014893;28;20044;-67
2022/01/04 08:04:59;;;;;;;2.00;1.17;;;11.60;76.20;;;;;;4997372;28;20046;-67
2022/01/04 08:07:25;;;;;;;1.40;1.00;;;11.60;76.30;;;;;;4999974;28;20042;-67
2022/01/04 08:09:52;;;;;;;2.42;1.15;;;11.60;76.50;;;;;;4996537;28;20049;-66
2022/01/04 08:12:18;;;;;;;1.08;0.98;;;11.60;76.80;;;;;;4993791;28;20034;-67
2022/01/04 08:14:45;;;;;;;2.53;1.50;;;11.50;76.70;;;;;;4998354;28;22174;-67
2022/01/04 08:17:11;;;;;;;1.70;1.35;;;11.50;77.10;;;;;;4999538;28;20034;-67
2022/01/04 08:19:37;;;;;;;1.23;1.13;;;11.50;77.20;;;;;;5000003;28;20029;-67
2022/01/04 08:22:03;;;;;;;1.77;1.13;;;11.40;77.30;;;;;;5001061;28;20041;-67
2022/01/04 08:24:29;;;;;;;2.65;1.20;;;11.40;77.30;;;;;;4999936;28;20088;-67
2022/01/04 08:26:55;;;;;;;1.77;1.08;;;11.40;77.30;;;;;;5001558;28;20034;-67
2022/01/04 08:29:20;;;;;;;1.13;0.90;;;11.40;77.60;;;;;;5000827;28;20532;-67
2022/01/04 08:31:46;;;;;;;1.63;1.10;;;11.40;77.50;;;;;;5001048;28;20046;-67
2022/01/04 08:34:12;;;;;;;1.05;0.95;;;11.40;77.70;;;;;;5001176;28;20097;-68
2022/01/04 08:36:39;;;;;;;1.13;0.90;;;11.40;77.80;;;;;;5003679;28;20041;-67
2022/01/04 08:39:05;;;;;;;1.30;0.80;;;11.40;77.90;;;;;;5000907;28;20052;-67
2022/01/04 08:41:31;;;;;;;1.33;0.93;;;11.40;77.70;;;;;;5005388;28;20308;-67
2022/01/04 08:43:56;;;;;;;2.28;0.82;;;11.50;77.90;;;;;;5004902;28;20049;-67
2022/01/04 08:46:22;;;;;;;1.15;0.90;;;11.50;77.70;;;;;;5001549;28;20026;-67
2022/01/04 08:48:48;;;;;;;1.13;1.00;;;11.50;77.70;;;;;;4999607;28;20096;-66
2022/01/04 08:51:14;;;;;;;1.67;1.50;;;11.50;77.50;;;;;;5004901;28;20053;-67
2022/01/04 08:53:40;;;;;;;1.33;1.10;;;11.60;78.30;;;;;;5004993;28;20160;-66
2022/01/04 08:56:06;;;;;;;2.83;0.90;;;11.60;77.50;;;;;;5004815;28;20121;-67
2022/01/04 08:58:32;;;;;;;2.10;1.10;;;11.60;77.50;;;;;;4999462;28;20125;-67
2022/01/04 09:00:58;;;;;;;0.98;0.80;;;11.70;77.40;;;;;;5006752;28;20568;-67
2022/01/04 09:03:26;;;;;;;2.75;0.90;;;11.70;77.50;;;;;;5007080;28;20045;-67
2022/01/04 09:05:52;;;;;;;1.40;1.10;;;11.70;77.50;;;;;;5003844;28;20590;-67
2022/01/04 09:08:18;;;;;;;1.60;1.30;;;11.80;77.50;;;;;;5002291;28;20037;-67
2022/01/04 09:10:44;;;;;;;1.00;0.90;;;11.80;77.40;;;;;;5001686;28;20068;-67
2022/01/04 09:13:17;;;;;;;1.27;0.88;;;11.80;77.30;;;;;;5002428;28;20132;-66
2022/01/04 09:20:54;;;;;;;2.05;1.67;;;12.00;77.20;;;;;;5005874;28;20408;-68
2022/01/04 09:23:21;;;;;;;1.50;1.05;;;12.10;77.00;;;;;;5004706;28;20037;-68
2022/01/04 09:25:49;;;;;;;1.63;1.15;;;12.20;77.00;;;;;;5004808;28;20038;-67
2022/01/04 09:28:15;;;;;;;0.93;0.82;;;12.20;76.70;;;;;;5005226;28;20038;-67
2022/01/04 09:30:43;;;;;;;1.75;0.90;;;12.30;76.80;;;;;;5006578;28;20038;-67
2022/01/04 09:33:09;;;;;;;3.85;2.08;;;12.30;76.80;;;;;;5004896;28;20085;-67
2022/01/04 09:35:36;;;;;;;4.05;3.65;;;12.40;76.70;;;;;;5003184;28;20049;-67
2022/01/04 09:38:02;;;;;;;6.18;1.10;;;12.40;77.60;;;;;;5003570;28;20117;-67
2022/01/04 09:40:28;;;;;;;1.20;1.10;;;12.40;76.80;;;;;;5004553;28;20560;-68
2022/01/04 09:42:54;;;;;;;2.03;0.90;;;12.40;76.80;;;;;;5002357;28;20045;-67
2022/01/04 09:45:20;;;;;;;2.70;1.10;;;12.50;76.80;;;;;;5005092;28;20046;-68
2022/01/04 09:47:46;;;;;;;0.88;0.77;;;12.50;76.70;;;;;;5003833;28;20033;-67
2022/01/04 09:50:12;;;;;;;1.63;1.40;;;12.50;76.50;;;;;;5004901;28;20038;-67
2022/01/04 09:52:43;;;;;;;0.80;0.70;;;12.60;76.40;;;;;;5003305;28;20033;-67
2022/01/04 09:55:13;;;;;;;1.27;0.90;;;12.60;76.30;;;;;;5003916;28;20072;-66
2022/01/04 09:57:39;;;;;;;1.10;0.90;;;12.60;76.10;;;;;;5003970;28;20032;-68
2022/01/04 10:00:06;;;;;;;3.47;0.82;;;12.70;76.00;;;;;;4999856;28;20038;-67
2022/01/04 10:02:32;;;;;;;1.08;0.93;;;12.70;75.80;;;;;;5004311;28;20040;-68
2022/01/04 10:05:25;;;;;;;1.48;0.80;;;12.70;75.70;;;;;;5003199;28;20038;-68
2022/01/04 10:08:05;;;;;;;1.08;0.98;;;12.80;75.40;;;;;;5002010;28;20033;-68
2022/01/04 10:10:31;;;;;;;0.95;0.80;;;12.90;75.00;;;;;;5001639;28;20038;-67
2022/01/04 10:13:00;;;;;;;0.82;0.80;;;12.90;74.90;;;;;;5002680;28;20040;-67
2022/01/04 10:15:39;;;;;;;0.90;0.80;;;13.00;74.70;;;;;;5003261;28;20026;-67
2022/01/04 10:18:16;;;;;;;0.95;0.80;;;13.00;74.30;;;;;;5019395;28;20064;-68
2022/01/04 10:20:51;;;;;;;0.60;0.60;;;13.10;74.20;;;;;;4998755;28;20065;-68
2022/01/04 10:23:25;;;;;;;1.40;1.00;;;13.10;74.20;;;;;;5003728;28;20038;-70
2022/01/04 10:25:52;;;;;;;1.45;0.98;;;13.20;73.70;;;;;;5003332;28;20031;-68
2022/01/04 10:28:32;;;;;;;1.27;1.08;;;13.20;73.50;;;;;;5004732;28;20038;-70
2022/01/04 10:31:18;;;;;;;2.85;1.08;;;13.30;72.60;;;;;;5003374;28;20473;-70
2022/01/04 10:33:50;;;;;;;1.45;0.90;;;13.30;72.80;;;;;;5005717;28;20092;-70
2022/01/04 10:36:19;;;;;;;0.80;0.70;;;13.40;72.30;;;;;;5005924;28;20065;-70
2022/01/04 10:38:50;;;;;;;0.93;0.65;;;13.40;71.60;;;;;;5004488;28;20497;-70
2022/01/04 10:41:16;;;;;;;0.65;0.50;;;13.50;71.60;;;;;;5001357;28;20034;-70
2022/01/04 10:43:57;;;;;;;2.13;0.60;;;13.50;71.30;;;;;;4998863;28;20037;-70
2022/01/04 10:46:43;;;;;;;1.60;0.70;;;13.60;70.10;;;;;;5003632;28;20549;-70
2022/01/04 10:49:17;;;;;;;0.73;0.73;;;13.70;69.20;;;;;;5004140;28;20557;-71
2022/01/04 10:51:44;;;;;;;1.10;0.50;;;13.80;69.50;;;;;;5004657;28;20030;-70
2022/01/04 10:54:18;;;;;;;1.80;0.70;;;13.80;69.50;;;;;;5003694;28;20064;-70
2022/01/04 10:56:44;;;;;;;0.70;0.60;;;13.90;68.80;;;;;;5003746;28;20124;-70
2022/01/04 10:59:12;;;;;;;2.47;0.73;;;14.00;69.10;;;;;;5001242;28;20125;-68
2022/01/04 11:01:46;;;;;;;1.77;0.70;;;14.00;68.90;;;;;;5003060;28;20034;-71
2022/01/04 11:04:13;;;;;;;;;;;14.10;68.30;;;;;;5002369;28;20061;-70
2022/01/04 11:06:39;;;;;;;1.55;0.60;;;14.20;68.00;;;;;;4999398;28;19922;-71
2022/01/04 11:09:06;;;;;;;0.68;0.68;;;14.20;68.60;;;;;;5001906;28;20041;-71
2022/01/04 11:11:32;;;;;;;0.60;0.57;;;14.20;68.10;;;;;;4999964;28;20392;-70
2022/01/04 11:13:59;;;;;;;0.90;0.70;;;14.30;67.40;;;;;;4999166;28;20140;-71
2022/01/04 11:16:26;;;;;;;1.50;0.70;;;14.30;67.40;;;;;;5003128;28;20053;-71
2022/01/04 11:18:54;;;;;;;1.17;0.60;;;14.30;67.10;;;;;;5002048;28;20134;-70
2022/01/04 11:21:28;;;;;;;3.95;0.68;;;14.30;67.00;;;;;;5002317;28;20476;-71
2022/01/04 11:23:55;;;;;;;2.25;0.60;;;14.40;66.60;;;;;;5003849;28;20215;-71
2022/01/04 11:26:22;;;;;;;0.75;0.60;;;14.50;67.00;;;;;;5002665;28;20548;-70
2022/01/04 11:28:50;;;;;;;0.68;0.63;;;14.50;66.60;;;;;;5002642;28;20177;-70
2022/01/04 11:31:19;;;;;;;1.45;0.68;;;14.60;66.10;;;;;;5002608;28;20034;-70
2022/01/04 11:33:46;;;;;;;1.35;0.68;;;14.60;66.30;;;;;;4998134;28;20027;-71
2022/01/04 11:36:14;;;;;;;1.20;0.70;;;14.70;66.40;;;;;;5002609;28;20044;-70
2022/01/04 11:38:40;;;;;;;0.90;0.73;;;14.70;66.90;;;;;;5006937;28;20069;-70
2022/01/04 11:41:05;;;;;;;0.70;0.60;;;14.80;65.90;;;;;;4999407;28;20038;-71
2022/01/04 11:43:38;;;;;;;0.77;0.60;;;14.90;65.90;;;;;;5001589;28;20027;-71
2022/01/04 11:46:05;;;;;;;1.33;0.68;;;15.00;65.50;;;;;;5002519;28;20038;-70
2022/01/04 11:48:40;;;;;;;0.85;0.80;;;15.10;65.60;;;;;;5001571;28;20030;-70
2022/01/04 11:51:09;;;;;;;2.55;0.60;;;15.20;64.50;;;;;;5002300;28;20052;-71
2022/01/04 11:53:36;;;;;;;2.40;0.77;;;15.30;64.60;;;;;;4997217;28;20096;-68
2022/01/04 11:56:04;;;;;;;2.35;0.50;;;15.40;64.20;;;;;;4997272;28;20793;-70
2022/01/04 11:58:48;;;;;;;1.45;0.70;;;15.40;63.40;;;;;;5002051;28;20072;-70
2022/01/04 12:01:16;;;;;;;1.77;0.80;;;15.50;62.70;;;;;;5002279;28;20034;-71
2022/01/04 12:03:49;;;;;;;1.23;1.00;;;15.60;63.60;;;;;;4997750;28;20152;-71
2022/01/04 12:06:17;;;;;;;1.17;0.63;;;15.60;62.70;;;;;;5001237;28;20453;-71
2022/01/04 12:08:50;;;;;;;0.70;0.63;;;15.70;62.50;;;;;;4999745;28;20673;-70
2022/01/04 12:11:39;;;;;;;0.95;0.65;;;15.70;61.90;;;;;;4995532;28;20045;-71
2022/01/04 12:14:24;;;;;;;4.18;0.90;;;15.80;60.50;;;;;;5002471;28;20101;-71
2022/01/04 12:17:07;;;;;;;1.17;0.70;;;15.80;61.20;;;;;;4999150;28;20540;-71
2022/01/04 12:19:51;;;;;;;2.38;0.77;;;15.90;60.80;;;;;;5005506;28;20040;-71
2022/01/04 12:22:31;;;;;;;1.25;0.70;;;15.90;59.70;;;;;;5004993;28;20596;-71
2022/01/04 12:25:04;;;;;;;1.40;0.88;;;15.90;60.50;;;;;;5005667;28;20502;-71
2022/01/04 12:27:29;;;;;;;0.85;0.70;;;16.00;59.80;;;;;;5005090;28;20057;-71
2022/01/04 12:30:25;;;;;;;1.73;0.80;;;16.00;60.70;;;;;;5004731;28;20704;-71
2022/01/04 12:32:51;;;;;;;1.60;0.73;;;16.00;59.40;;;;;;5000505;28;20087;-71
2022/01/04 12:35:17;;;;;;;1.70;0.77;;;16.00;59.80;;;;;;5002973;28;20421;-71
2022/01/04 12:37:43;;;;;;;1.20;1.10;;;16.00;60.50;;;;;;4999066;28;20572;-70
2022/01/04 12:40:09;;;;;;;2.88;1.08;;;16.00;60.30;;;;;;4999750;28;20117;-70
2022/01/04 12:42:39;;;;;;;1.42;0.90;;;16.00;60.30;;;;;;5000197;28;20125;-70
2022/01/04 12:45:05;;;;;;;1.02;0.85;;;16.00;60.10;;;;;;5002319;28;20548;-71
2022/01/04 12:47:32;;;;;;;1.10;0.88;;;15.90;59.80;;;;;;4999843;28;20034;-71
2022/01/04 12:49:59;;;;;;;1.23;0.90;;;15.90;60.10;;;;;;4999057;28;20045;-71
2022/01/04 12:52:25;;;;;;;1.20;0.95;;;15.90;60.50;;;;;;5000101;28;20112;-71
2022/01/04 12:54:50;;;;;;;1.50;0.90;;;15.90;60.50;;;;;;4999441;28;20366;-71
2022/01/04 12:57:22;;;;;;;1.35;1.25;;;15.90;60.80;;;;;;4997670;28;20117;-71
2022/01/04 12:59:51;;;;;;;2.28;0.88;;;15.90;61.30;;;;;;4999788;28;20030;-70
2022/01/04 13:02:16;;;;;;;1.05;0.90;;;15.90;61.70;;;;;;4999110;28;20076;-70
2022/01/04 13:04:45;;;;;;;1.98;1.20;;;15.80;62.10;;;;;;5002249;28;20501;-70